AEST,Max TemperatureF,Mean TemperatureF,Min TemperatureF,Max Dew PointF,MeanDew PointF,Min DewpointF,Max Humidity, Mean Humidity, Min Humidity, Max Sea Level PressureIn, Mean Sea Level PressureIn, Min Sea Level PressureIn, Max VisibilityMiles, Mean VisibilityMiles, Min VisibilityMiles, Max Wind SpeedMPH, Mean Wind SpeedMPH, Max Gust SpeedMPH,PrecipitationIn, CloudCover, Events, WindDirDegrees
2013-1-1,86,78,71,77,75,72,100,88,66,29.89,29.85,29.80,,,,30,21,38,0.16,,,127
2013-1-2,84,80,75,77,75,72,95,83,66,29.84,29.81,29.77,,,,22,17,,0.00,,,132
2013-1-3,86,82,77,77,75,73,94,81,64,29.86,29.82,29.80,,,,28,16,,0.00,,,130
2013-1-4,86,82,78,75,73,70,89,76,59,29.87,29.83,29.79,,,,29,25,,0.00,,,116
2013-1-5,85,79,73,73,72,70,94,74,56,29.92,29.87,29.80,,,,28,24,34,0.08,,,114
2013-1-6,84,78,72,75,72,70,84,75,61,29.95,29.89,29.86,,,,29,24,,0.02,,,117
2013-1-7,84,78,73,75,72,68,100,76,56,29.93,29.89,29.86,,,,48,27,53,0.16,,,113
2013-1-8,84,78,72,75,73,70,100,81,65,29.89,29.81,29.74,,,,31,22,39,0.00,,,105
2013-1-9,86,80,74,75,72,70,94,77,59,29.77,29.69,29.62,,,,16,6,,0.00,,,45
2013-1-10,87,81,75,77,74,72,90,78,60,29.77,29.70,29.62,,,,16,8,,0.00,,,6
2013-1-11,85,81,77,79,76,72,94,84,72,29.89,29.83,29.74,,,,20,11,,0.01,,,98
2013-1-12,86,82,79,77,75,73,89,80,68,29.92,29.87,29.83,,,,17,14,,0.00,,,91
2013-1-13,86,82,78,75,73,72,89,76,62,29.87,29.84,29.80,,,,15,11,,0.00,,,80
2013-1-14,86,80,75,75,73,68,94,76,58,29.83,29.79,29.73,,,,18,7,,0.00,,,344
2013-1-15,87,82,78,74,72,66,83,74,49,29.86,29.83,29.77,,,,22,11,,0.00,,,74
2013-1-16,86,80,75,77,74,72,100,81,63,29.86,29.84,29.80,,,,34,17,32,0.39,,,107
2013-1-17,85,79,73,77,74,70,94,80,61,29.86,29.82,29.77,,,,18,14,,0.00,,,113
2013-1-18,87,82,77,76,73,70,94,75,52,29.83,29.79,29.74,,,,16,7,,0.00,,,47
2013-1-19,86,82,77,75,72,66,89,73,51,29.81,29.76,29.71,,,,18,7,,0.00,,,38
2013-1-20,86,82,79,77,75,73,89,78,62,29.80,29.75,29.71,,,,26,15,,0.00,,,86
2013-1-21,86,82,78,77,75,73,94,79,66,29.77,29.71,29.65,,,,29,26,,0.00,,,105
2013-1-22,86,82,77,79,76,73,94,81,67,29.72,29.67,29.62,,,,31,26,37,0.04,,,112
2013-1-23,81,78,75,79,77,73,100,96,82,29.68,29.65,29.59,,,,44,22,51,4.57,,,117
2013-1-24,84,79,74,81,78,77,100,94,84,29.60,29.48,29.33,,,,37,22,58,1.69,,,21
2013-1-25,82,78,75,81,77,73,100,88,73,29.42,29.34,29.27,,,,40,30,52,0.00,,,317
2013-1-26,87,81,75,81,76,73,100,84,62,29.53,29.44,29.36,,,,39,25,54,0.51,,,314
2013-1-27,87,81,75,84,81,77,100,93,76,29.50,29.47,29.44,,,,32,27,40,0.00,,,327
2013-1-28,86,84,82,84,83,82,100,98,89,29.62,29.57,29.50,,,,22,17,,0.00,,,323
2013-1-29,91,86,80,84,80,72,100,85,60,29.71,29.65,29.59,,,,23,13,,0.00,,,326
2013-1-30,87,83,79,82,80,77,100,89,78,29.80,29.75,29.68,,,,16,6,,0.00,,,82
2013-1-31,87,84,80,81,78,75,100,87,71,29.84,29.80,29.76,,,,30,13,,0.00,,,119